createdAt,value
2018-11-01T00:01:35.807Z,19.37
2018-11-01T00:04:26.145Z,18.50
2018-11-01T00:07:14.682Z,19.70
2018-11-01T00:10:04.078Z,18.70
2018-11-01T00:12:53.522Z,19.97
2018-11-01T00:15:45.456Z,20.23
2018-11-01T00:18:35.174Z,20.43
2018-11-01T00:21:24.404Z,20.10
2018-11-01T00:24:12.435Z,20.27
2018-11-01T00:27:02.943Z,20.13
2018-11-01T00:29:51.579Z,22.15
2018-11-01T00:32:38.990Z,20.10
2018-11-01T00:35:27.279Z,20.43
2018-11-01T00:38:17.152Z,20.80
2018-11-01T00:41:07.169Z,20.80
2018-11-01T00:43:56.514Z,20.23
2018-11-01T00:46:46.110Z,20.73
2018-11-01T00:49:36.688Z,18.47
2018-11-01T00:52:28.636Z,20.07
2018-11-01T00:55:18.683Z,20.77
2018-11-01T00:58:09.160Z,20.90
2018-11-01T01:01:00.077Z,22.20
2018-11-01T01:03:49.828Z,19.20
2018-11-01T01:06:42.173Z,23.73
2018-11-01T01:09:33.296Z,20.30
2018-11-01T01:12:24.660Z,20.30
2018-11-01T01:15:15.125Z,19.93
2018-11-01T01:18:04.621Z,20.87
2018-11-01T01:20:52.967Z,20.53
2018-11-01T01:23:42.842Z,21.43
2018-11-01T01:26:32.329Z,22.73
2018-11-01T01:29:20.825Z,23.77
2018-11-01T01:32:10.716Z,25.33
2018-11-01T01:35:01.987Z,24.03
2018-11-01T01:37:52.603Z,24.10
2018-11-01T01:40:43.583Z,23.47
2018-11-01T01:43:33.748Z,23.00
2018-11-01T01:46:24.396Z,22.53
2018-11-01T01:49:14.579Z,23.93
2018-11-01T01:52:02.584Z,22.63
2018-11-01T01:54:52.791Z,22.67
2018-11-01T01:57:41.340Z,22.60
2018-11-01T02:00:29.794Z,21.93
2018-11-01T02:03:18.060Z,21.70
2018-11-01T02:06:07.952Z,22.40
2018-11-01T02:09:01.575Z,23.00
2018-11-01T02:11:53.301Z,21.68
2018-11-01T02:28:40.779Z,20.45
2018-11-01T02:31:31.124Z,19.67
2018-11-01T02:34:21.202Z,20.20
2018-11-01T02:37:10.488Z,19.17
2018-11-01T02:40:02.250Z,19.25
2018-11-01T02:42:52.644Z,20.00
2018-11-01T02:45:40.655Z,18.67
2018-11-01T02:48:29.860Z,20.48
2018-11-01T02:51:17.574Z,19.40
2018-11-01T02:54:05.405Z,20.53
2018-11-01T02:56:53.457Z,19.60
2018-11-01T02:59:43.353Z,18.65
2018-11-01T03:02:32.424Z,18.77
2018-11-01T03:05:20.950Z,19.02
2018-11-01T03:08:10.237Z,18.48
2018-11-01T03:11:00.171Z,17.12
2018-11-01T03:13:48.592Z,20.70
2018-11-01T03:16:38.472Z,19.27
2018-11-01T03:19:29.673Z,17.87
2018-11-01T03:22:17.884Z,17.40
2018-11-01T03:25:07.679Z,16.83
2018-11-01T03:27:55.676Z,17.63
2018-11-01T03:30:44.170Z,17.60
2018-11-01T03:33:33.222Z,17.05
2018-11-01T03:36:22.810Z,15.63
2018-11-01T03:39:13.964Z,15.67
2018-11-01T03:42:02.294Z,16.02
2018-11-01T03:44:50.818Z,15.55
2018-11-01T03:47:40.251Z,15.27
2018-11-01T03:50:30.565Z,15.50
2018-11-01T03:53:18.703Z,15.70
2018-11-01T03:56:07.473Z,15.90
2018-11-01T03:58:55.966Z,15.23
2018-11-01T04:01:44.702Z,15.07
2018-11-01T04:04:33.933Z,14.80
2018-11-01T04:07:22.939Z,13.83
2018-11-01T04:10:14.716Z,15.03
2018-11-01T04:13:04.370Z,14.28
2018-11-01T04:15:53.479Z,14.30
2018-11-01T04:18:42.227Z,15.00
2018-11-01T04:21:31.712Z,15.23
2018-11-01T04:24:22.012Z,14.27
2018-11-01T04:27:13.474Z,14.13
2018-11-01T04:30:03.628Z,14.78
2018-11-01T04:32:54.237Z,13.93
2018-11-01T04:35:43.612Z,14.00
2018-11-01T04:38:32.695Z,14.23
2018-11-01T04:41:21.815Z,14.40
2018-11-01T04:44:13.319Z,18.05
2018-11-01T04:47:02.756Z,18.98
2018-11-01T04:49:53.290Z,16.60
2018-11-01T04:52:44.381Z,15.33
2018-11-01T04:55:34.647Z,16.52
2018-11-01T04:58:24.497Z,15.73
2018-11-01T05:01:13.138Z,15.00
2018-11-01T05:04:01.713Z,13.48
2018-11-01T05:06:58.859Z,13.50
2018-11-01T05:09:54.294Z,13.18
2018-11-01T05:12:46.084Z,13.40
2018-11-01T05:15:34.519Z,12.25
2018-11-01T05:18:23.582Z,12.28
2018-11-01T05:21:12.561Z,12.43
2018-11-01T05:24:09.335Z,12.53
2018-11-01T05:27:03.707Z,11.53
2018-11-01T05:29:52.998Z,12.25
2018-11-01T05:32:44.083Z,13.08
2018-11-01T05:35:41.382Z,12.88
2018-11-01T05:38:31.765Z,13.98
2018-11-01T05:41:29.997Z,13.50
2018-11-01T05:44:19.387Z,12.93
2018-11-01T05:47:22.891Z,11.70
2018-11-01T05:50:19.925Z,12.93
2018-11-01T05:53:10.587Z,13.28
2018-11-01T05:56:02.234Z,11.80
2018-11-01T05:59:05.567Z,12.18
2018-11-01T06:02:04.211Z,12.20
2018-11-01T06:05:04.728Z,12.80
2018-11-01T06:07:59.840Z,12.13
2018-11-01T06:10:48.807Z,12.05
2018-11-01T06:13:37.320Z,11.27
2018-11-01T06:16:25.832Z,12.80
2018-11-01T06:19:15.547Z,12.68
2018-11-01T06:22:07.040Z,12.13
2018-11-01T06:24:56.502Z,12.27
2018-11-01T06:27:46.399Z,11.33
2018-11-01T06:30:38.078Z,11.27
2018-11-01T06:33:27.778Z,11.47
2018-11-01T06:36:19.902Z,12.20
2018-11-01T06:39:12.512Z,12.17
2018-11-01T06:42:03.084Z,12.93
2018-11-01T06:44:51.775Z,13.88
2018-11-01T06:55:12.726Z,14.53
2018-11-01T07:01:27.205Z,14.05
2018-11-01T07:04:17.188Z,14.67
2018-11-01T07:07:10.532Z,14.85
2018-11-01T07:10:20.751Z,14.95
2018-11-01T07:13:10.016Z,14.90
2018-11-01T07:15:58.276Z,13.70
2018-11-01T07:18:49.471Z,14.23
2018-11-01T07:21:39.710Z,14.30
2018-11-01T07:24:35.250Z,14.75
2018-11-01T07:27:32.953Z,14.07
2018-11-01T07:30:22.665Z,13.77
2018-11-01T07:36:26.765Z,14.33
2018-11-01T07:39:26.906Z,13.40
2018-11-01T07:42:28.484Z,13.65
2018-11-01T07:45:31.748Z,13.40
2018-11-01T07:48:23.456Z,13.60
2018-11-01T07:51:11.703Z,13.47
2018-11-01T07:54:01.531Z,13.65
2018-11-01T07:56:53.001Z,13.40
2018-11-01T08:03:05.477Z,13.40
2018-11-01T08:05:55.374Z,12.58
2018-11-01T08:08:45.841Z,12.93
2018-11-01T08:11:37.214Z,13.03
2018-11-01T08:14:27.000Z,12.83
2018-11-01T08:17:17.883Z,13.13
2018-11-01T08:20:10.873Z,13.43
2018-11-01T08:23:02.526Z,13.00
2018-11-01T08:25:54.053Z,12.70
2018-11-01T08:28:45.487Z,13.10
2018-11-01T08:31:35.915Z,13.67
2018-11-01T08:34:26.361Z,13.00
2018-11-01T08:37:17.780Z,13.38
2018-11-01T08:40:08.382Z,12.73
2018-11-01T08:43:31.191Z,13.63
2018-11-01T08:46:24.004Z,12.13
2018-11-01T08:50:01.415Z,13.13
2018-11-01T08:52:56.569Z,11.78
2018-11-01T08:55:49.967Z,11.85
2018-11-01T08:58:51.683Z,13.88
2018-11-01T09:01:43.438Z,12.45
2018-11-01T09:04:36.446Z,12.28
2018-11-01T09:07:27.213Z,12.05
2018-11-01T09:10:21.154Z,11.55
2018-11-01T09:13:10.865Z,11.90
2018-11-01T09:16:01.489Z,12.20
2018-11-01T09:18:52.238Z,10.98
2018-11-01T09:21:44.250Z,11.40
2018-11-01T09:24:33.629Z,11.80
2018-11-01T09:27:24.207Z,11.78
2018-11-01T09:30:21.851Z,11.63
2018-11-01T09:33:29.386Z,11.40
2018-11-01T09:36:56.562Z,11.15
2018-11-01T09:40:10.609Z,11.60
2018-11-01T09:43:13.637Z,10.97
2018-11-01T09:50:51.780Z,11.90
2018-11-01T09:53:56.285Z,11.73
2018-11-01T09:57:00.746Z,11.12
2018-11-01T10:04:41.079Z,11.50
2018-11-01T10:07:50.795Z,11.63
2018-11-01T10:14:25.828Z,12.18
2018-11-01T10:17:26.501Z,12.07
2018-11-01T10:23:23.223Z,12.37
2018-11-01T10:26:13.622Z,11.75
2018-11-01T10:32:22.069Z,11.68
2018-11-01T10:35:19.489Z,12.43
2018-11-01T10:38:20.196Z,12.78
2018-11-01T10:41:18.994Z,11.60
2018-11-01T10:44:13.208Z,11.97
2018-11-01T10:47:12.619Z,11.23
2018-11-01T10:50:47.468Z,11.27
2018-11-01T11:12:05.016Z,12.28
2018-11-01T11:15:03.878Z,11.90
2018-11-01T11:25:43.667Z,12.33
2018-11-01T11:28:43.607Z,12.95
2018-11-01T11:31:39.869Z,12.20
2018-11-01T11:34:29.989Z,12.17
2018-11-01T11:37:18.976Z,13.35
2018-11-01T11:40:16.227Z,12.30
2018-11-01T11:43:09.107Z,12.70
2018-11-01T11:45:57.727Z,12.07
2018-11-01T11:48:47.661Z,12.77
2018-11-01T11:51:36.455Z,12.15
2018-11-01T11:54:26.787Z,13.30
2018-11-01T11:57:16.025Z,12.95
2018-11-01T12:00:06.441Z,12.25
2018-11-01T12:02:55.525Z,12.80
2018-11-01T12:05:44.488Z,13.38
2018-11-01T12:08:32.982Z,12.75
2018-11-01T12:11:26.631Z,13.45
2018-11-01T12:14:14.586Z,14.28
2018-11-01T12:17:05.128Z,14.47
2018-11-01T12:19:55.319Z,13.93
2018-11-01T12:22:47.373Z,13.90
2018-11-01T12:25:36.630Z,14.70
2018-11-01T12:28:25.354Z,14.23
2018-11-01T12:31:14.889Z,15.23
2018-11-01T12:34:07.894Z,13.72
2018-11-01T12:36:58.919Z,15.13
2018-11-01T12:39:47.456Z,15.53
2018-11-01T12:42:36.414Z,16.30
2018-11-01T12:45:25.859Z,15.23
2018-11-01T12:48:14.863Z,16.05
2018-11-01T12:52:26.199Z,15.05
2018-11-01T12:55:14.309Z,14.60
2018-11-01T12:58:02.852Z,15.60
2018-11-01T13:00:51.020Z,16.25
2018-11-01T13:03:41.245Z,15.50
2018-11-01T13:06:30.436Z,16.20
2018-11-01T13:09:23.465Z,16.70
2018-11-01T13:12:13.465Z,17.70
2018-11-01T13:15:01.678Z,17.77
2018-11-01T13:17:50.199Z,18.20
2018-11-01T13:20:37.875Z,18.37
2018-11-01T13:23:25.915Z,17.75
2018-11-01T13:26:14.266Z,18.50
2018-11-01T13:29:02.325Z,17.67
2018-11-01T13:31:50.193Z,19.30
2018-11-01T13:34:38.454Z,18.67
2018-11-01T13:37:27.905Z,18.73
2018-11-01T13:40:16.356Z,20.57
2018-11-01T13:43:04.311Z,19.48
2018-11-01T13:45:52.982Z,19.57
2018-11-01T13:48:41.134Z,18.75
2018-11-01T13:51:29.890Z,19.53
2018-11-01T13:54:18.665Z,20.13
2018-11-01T13:57:08.997Z,21.00
2018-11-01T13:59:58.434Z,20.40
2018-11-01T14:02:47.265Z,23.45
2018-11-01T14:05:36.668Z,20.90
2018-11-01T14:08:25.213Z,20.92
2018-11-01T14:11:14.242Z,22.15
2018-11-01T14:14:03.334Z,20.00
2018-11-01T14:16:52.642Z,21.23
2018-11-01T14:19:41.164Z,22.35
2018-11-01T14:22:30.279Z,21.17
2018-11-01T14:25:19.195Z,19.62
2018-11-01T14:28:09.056Z,19.98
2018-11-01T14:30:58.371Z,22.25
2018-11-01T14:33:46.932Z,19.55
2018-11-01T14:36:36.721Z,19.30
2018-11-01T14:39:25.410Z,20.77
2018-11-01T14:42:14.295Z,19.70
2018-11-01T14:45:02.924Z,19.70
2018-11-01T14:47:50.649Z,20.08
2018-11-01T14:50:38.898Z,19.98
2018-11-01T14:53:29.133Z,19.73
2018-11-01T14:56:18.753Z,20.35
2018-11-01T14:59:07.936Z,20.50
2018-11-01T15:01:55.313Z,18.23
2018-11-01T15:04:43.884Z,19.40
2018-11-01T15:07:33.070Z,20.10
2018-11-01T15:10:24.295Z,19.40
2018-11-01T15:13:13.525Z,19.50
2018-11-01T15:16:01.647Z,19.98
2018-11-01T15:18:50.523Z,19.00
2018-11-01T15:21:39.758Z,19.30
2018-11-01T15:24:28.148Z,19.48
2018-11-01T15:27:16.856Z,20.85
2018-11-01T15:30:05.020Z,20.70
2018-11-01T15:32:54.516Z,20.48
2018-11-01T15:35:43.611Z,19.42
2018-11-01T15:38:32.144Z,19.97
2018-11-01T15:41:22.270Z,20.15
2018-11-01T15:44:13.620Z,19.92
2018-11-01T15:47:03.039Z,19.60
2018-11-01T15:49:51.771Z,19.43
2018-11-01T15:52:43.251Z,20.43
2018-11-01T15:55:32.389Z,20.97
2018-11-01T15:58:21.448Z,20.60
2018-11-01T16:01:10.037Z,20.52
2018-11-01T16:03:59.117Z,20.47
2018-11-01T16:06:48.429Z,21.40
2018-11-01T16:09:36.459Z,22.77
2018-11-01T16:12:26.435Z,21.35
2018-11-01T16:15:17.282Z,20.47
2018-11-01T16:18:06.190Z,19.73
2018-11-01T16:20:55.419Z,20.70
2018-11-01T16:23:46.537Z,19.80
2018-11-01T16:26:35.781Z,22.20
2018-11-01T16:29:24.675Z,20.32
2018-11-01T16:32:13.194Z,20.52
2018-11-01T16:35:01.696Z,20.83
2018-11-01T16:37:49.615Z,20.23
2018-11-01T16:40:40.768Z,20.60
2018-11-01T16:43:31.072Z,20.82
2018-11-01T16:46:21.133Z,22.30
2018-11-01T16:49:09.589Z,22.60
2018-11-01T16:52:01.663Z,20.13
2018-11-01T16:54:50.766Z,21.45
2018-11-01T16:57:39.539Z,20.63
2018-11-01T17:00:29.868Z,20.32
2018-11-01T17:03:18.127Z,21.10
2018-11-01T17:06:07.403Z,20.93
2018-11-01T17:08:56.925Z,22.17
2018-11-01T17:11:45.829Z,27.00
2018-11-01T17:14:34.430Z,24.90
2018-11-01T17:17:23.386Z,22.42
2018-11-01T17:20:12.411Z,20.77
2018-11-01T17:23:02.469Z,21.77
2018-11-01T17:25:54.567Z,22.90
2018-11-01T17:28:42.747Z,21.17
2018-11-01T17:31:31.622Z,24.80
2018-11-01T17:34:24.095Z,22.80
2018-11-01T17:37:13.050Z,21.77
2018-11-01T17:40:01.200Z,21.37
2018-11-01T17:42:50.181Z,24.03
2018-11-01T17:45:38.697Z,22.87
2018-11-01T17:48:26.699Z,25.60
2018-11-01T17:51:15.718Z,26.50
2018-11-01T17:54:04.376Z,24.83
2018-11-01T17:56:53.375Z,24.87
2018-11-01T17:59:41.281Z,25.43
2018-11-01T18:02:29.392Z,21.17
2018-11-01T18:05:18.535Z,22.27
2018-11-01T18:11:02.708Z,24.07
2018-11-01T18:13:52.972Z,22.97
2018-11-01T18:16:40.938Z,21.60
2018-11-01T18:19:29.963Z,21.73
2018-11-01T18:22:18.455Z,24.33
2018-11-01T18:25:08.893Z,21.40
2018-11-01T18:27:56.543Z,22.77
2018-11-01T18:30:46.366Z,21.73
2018-11-01T18:33:34.259Z,22.58
2018-11-01T18:36:22.985Z,22.60
2018-11-01T18:39:12.651Z,22.90
2018-11-01T18:42:02.713Z,24.13
2018-11-01T18:44:52.817Z,23.20
2018-11-01T18:47:41.076Z,24.20
2018-11-01T18:50:30.181Z,21.90
2018-11-01T18:53:19.972Z,20.62
2018-11-01T18:56:07.625Z,21.50
2018-11-01T18:58:55.907Z,21.53
2018-11-01T19:01:44.423Z,21.90
2018-11-01T19:04:33.244Z,22.02
2018-11-01T19:07:20.849Z,22.70
2018-11-01T19:10:09.762Z,22.37
2018-11-01T19:12:58.719Z,21.12
2018-11-01T19:15:48.904Z,22.40
2018-11-01T19:18:36.907Z,21.80
2018-11-01T19:21:25.093Z,21.57
2018-11-01T19:24:12.591Z,21.25
2018-11-01T19:27:02.089Z,21.47
2018-11-01T19:29:50.801Z,21.50
2018-11-01T19:32:40.209Z,21.83
2018-11-01T19:35:28.002Z,21.20
2018-11-01T19:38:15.829Z,21.27
2018-11-01T19:41:03.726Z,21.12
2018-11-01T19:43:51.666Z,20.90
2018-11-01T19:46:40.637Z,21.57
2018-11-01T19:49:28.351Z,21.82
2018-11-01T19:52:17.103Z,22.02
2018-11-01T19:55:05.228Z,22.90
2018-11-01T19:57:55.310Z,22.33
2018-11-01T20:00:43.723Z,23.20
2018-11-01T20:03:36.543Z,23.27
2018-11-01T20:06:23.973Z,24.37
2018-11-01T20:09:13.133Z,22.47
2018-11-01T20:12:02.094Z,23.87
2018-11-01T20:14:49.938Z,24.03
2018-11-01T20:17:38.071Z,22.10
2018-11-01T20:20:27.442Z,26.07
2018-11-01T20:23:16.027Z,24.32
2018-11-01T20:26:04.834Z,22.00
2018-11-01T20:28:53.172Z,23.50
2018-11-01T20:31:41.429Z,22.77
2018-11-01T20:34:30.216Z,23.60
2018-11-01T20:37:18.629Z,24.23
2018-11-01T20:40:07.203Z,22.65
2018-11-01T20:42:56.450Z,23.38
2018-11-01T20:45:45.192Z,22.27
2018-11-01T20:48:35.981Z,25.93
2018-11-01T20:51:27.183Z,23.50
2018-11-01T20:54:16.615Z,22.30
2018-11-01T20:57:05.079Z,25.55
2018-11-01T20:59:54.639Z,22.60
2018-11-01T21:02:43.805Z,25.00
2018-11-01T21:05:32.696Z,22.80
2018-11-01T21:08:21.089Z,21.90
2018-11-01T21:11:11.229Z,24.63
2018-11-01T21:14:00.145Z,23.25
2018-11-01T21:16:48.034Z,25.40
2018-11-01T21:19:35.624Z,27.43
2018-11-01T21:22:23.563Z,30.45
2018-11-01T21:25:12.857Z,34.83
2018-11-01T21:28:01.884Z,37.50
2018-11-01T21:30:51.813Z,58.37
2018-11-01T21:33:40.841Z,43.37
2018-11-01T21:36:30.470Z,56.28
2018-11-01T21:39:18.111Z,47.83
2018-11-01T21:42:06.261Z,45.40
2018-11-01T21:44:55.436Z,51.20
2018-11-01T21:47:44.112Z,55.73
2018-11-01T21:50:32.749Z,50.43
2018-11-01T21:53:21.431Z,57.30
2018-11-01T21:56:09.048Z,48.85
2018-11-01T21:58:58.625Z,51.63
2018-11-01T22:01:47.664Z,54.60
2018-11-01T22:04:36.080Z,54.00
2018-11-01T22:07:24.914Z,57.30
2018-11-01T22:10:13.764Z,51.70
2018-11-01T22:13:02.287Z,55.90
2018-11-01T22:15:50.958Z,53.33
2018-11-01T22:18:39.711Z,56.18
2018-11-01T22:21:27.746Z,54.67
2018-11-01T22:24:18.018Z,56.50
2018-11-01T22:27:07.791Z,53.50
2018-11-01T22:29:56.576Z,57.93
2018-11-01T22:32:45.940Z,51.80
2018-11-01T22:35:34.614Z,58.52
2018-11-01T22:38:23.986Z,51.10
2018-11-01T22:41:11.482Z,54.60
2018-11-01T22:44:01.689Z,53.70
2018-11-01T22:46:49.187Z,56.37
2018-11-01T22:49:37.232Z,54.60
2018-11-01T22:52:26.223Z,52.37
2018-11-01T22:55:15.443Z,52.33
2018-11-01T22:58:04.250Z,52.30
2018-11-01T23:00:53.104Z,52.07
2018-11-01T23:03:41.534Z,50.75
2018-11-01T23:06:31.028Z,51.90
2018-11-01T23:09:20.848Z,51.63
2018-11-01T23:12:09.603Z,48.15
2018-11-01T23:14:59.149Z,48.27
2018-11-01T23:17:46.743Z,48.50
2018-11-01T23:20:35.115Z,48.20
2018-11-01T23:23:23.983Z,46.35
2018-11-01T23:26:13.182Z,46.20
2018-11-01T23:29:03.409Z,47.13
2018-11-01T23:31:53.086Z,46.57
2018-11-01T23:34:42.546Z,48.13
2018-11-01T23:37:35.644Z,46.37
2018-11-01T23:40:27.869Z,46.47
2018-11-01T23:43:25.406Z,47.13
2018-11-01T23:46:17.882Z,46.20
2018-11-01T23:49:11.101Z,45.43
2018-11-01T23:52:10.245Z,45.43
2018-11-01T23:54:58.389Z,45.38
2018-11-01T23:57:46.471Z,45.37
